sensor_id;sensor_type;location;lat;lon;timestamp;P1;durP1;ratioP1;P2;durP2;ratioP2
28304;SDS011;15569;42.652;23.040;2022-10-16T00:01:04;18.80;;;9.73;;
28304;SDS011;15569;42.652;23.040;2022-10-16T00:03:31;21.90;;;9.35;;
28304;SDS011;15569;42.652;23.040;2022-10-16T00:05:58;16.95;;;9.27;;
28304;SDS011;15569;42.652;23.040;2022-10-16T00:08:25;16.13;;;8.27;;
28304;SDS011;15569;42.652;23.040;2022-10-16T00:10:50;14.13;;;8.05;;
28304;SDS011;15569;42.652;23.040;2022-10-16T00:13:16;18.88;;;10.55;;
28304;SDS011;15569;42.652;23.040;2022-10-16T00:15:42;21.95;;;8.23;;
28304;SDS011;15569;42.652;23.040;2022-10-16T00:18:09;21.70;;;8.00;;
28304;SDS011;15569;42.652;23.040;2022-10-16T00:20:35;21.65;;;8.75;;
28304;SDS011;15569;42.652;23.040;2022-10-16T00:23:02;19.48;;;7.63;;
28304;SDS011;15569;42.652;23.040;2022-10-16T00:25:29;17.98;;;7.45;;
28304;SDS011;15569;42.652;23.040;2022-10-16T00:27:57;16.08;;;7.63;;
28304;SDS011;15569;42.652;23.040;2022-10-16T00:30:23;20.27;;;8.77;;
28304;SDS011;15569;42.652;23.040;2022-10-16T00:32:48;22.23;;;8.25;;
28304;SDS011;15569;42.652;23.040;2022-10-16T00:35:14;15.38;;;7.82;;
28304;SDS011;15569;42.652;23.040;2022-10-16T00:37:39;21.00;;;7.78;;
28304;SDS011;15569;42.652;23.040;2022-10-16T00:40:05;16.40;;;7.28;;
28304;SDS011;15569;42.652;23.040;2022-10-16T00:42:31;16.13;;;7.88;;
28304;SDS011;15569;42.652;23.040;2022-10-16T00:44:56;13.63;;;7.25;;
28304;SDS011;15569;42.652;23.040;2022-10-16T00:49:54;17.35;;;7.20;;
28304;SDS011;15569;42.652;23.040;2022-10-16T00:52:23;14.10;;;7.38;;
28304;SDS011;15569;42.652;23.040;2022-10-16T00:54:49;16.73;;;6.90;;
28304;SDS011;15569;42.652;23.040;2022-10-16T00:57:17;17.45;;;8.00;;
28304;SDS011;15569;42.652;23.040;2022-10-16T00:59:43;14.13;;;7.32;;
28304;SDS011;15569;42.652;23.040;2022-10-16T01:02:10;12.95;;;6.75;;
28304;SDS011;15569;42.652;23.040;2022-10-16T01:04:39;16.45;;;8.13;;
28304;SDS011;15569;42.652;23.040;2022-10-16T01:09:46;15.77;;;7.35;;
28304;SDS011;15569;42.652;23.040;2022-10-16T01:15:01;13.88;;;6.72;;
28304;SDS011;15569;42.652;23.040;2022-10-16T01:17:38;11.05;;;6.82;;
28304;SDS011;15569;42.652;23.040;2022-10-16T01:28:25;16.50;;;7.82;;
28304;SDS011;15569;42.652;23.040;2022-10-16T01:30:58;14.23;;;7.75;;
28304;SDS011;15569;42.652;23.040;2022-10-16T01:33:30;20.88;;;10.52;;
28304;SDS011;15569;42.652;23.040;2022-10-16T01:36:03;19.63;;;10.52;;
28304;SDS011;15569;42.652;23.040;2022-10-16T01:39:00;18.15;;;7.93;;
28304;SDS011;15569;42.652;23.040;2022-10-16T01:41:34;13.38;;;8.13;;
28304;SDS011;15569;42.652;23.040;2022-10-16T01:46:37;17.45;;;10.38;;
28304;SDS011;15569;42.652;23.040;2022-10-16T01:49:04;24.15;;;13.48;;
28304;SDS011;15569;42.652;23.040;2022-10-16T01:51:31;20.35;;;12.57;;
28304;SDS011;15569;42.652;23.040;2022-10-16T01:53:58;28.80;;;13.77;;
28304;SDS011;15569;42.652;23.040;2022-10-16T01:56:26;23.77;;;11.85;;
28304;SDS011;15569;42.652;23.040;2022-10-16T01:59:01;28.30;;;11.32;;
28304;SDS011;15569;42.652;23.040;2022-10-16T02:01:31;17.95;;;10.68;;
28304;SDS011;15569;42.652;23.040;2022-10-16T02:04:01;18.63;;;10.27;;
28304;SDS011;15569;42.652;23.040;2022-10-16T02:06:32;19.35;;;9.90;;
28304;SDS011;15569;42.652;23.040;2022-10-16T02:08:57;20.80;;;9.65;;
28304;SDS011;15569;42.652;23.040;2022-10-16T02:11:24;18.15;;;11.10;;
28304;SDS011;15569;42.652;23.040;2022-10-16T02:13:58;25.08;;;13.73;;
28304;SDS011;15569;42.652;23.040;2022-10-16T02:16:42;23.20;;;12.80;;
28304;SDS011;15569;42.652;23.040;2022-10-16T02:19:09;20.73;;;10.45;;
28304;SDS011;15569;42.652;23.040;2022-10-16T02:21:58;19.10;;;10.93;;
28304;SDS011;15569;42.652;23.040;2022-10-16T02:29:30;19.02;;;9.80;;
28304;SDS011;15569;42.652;23.040;2022-10-16T02:32:00;24.80;;;11.70;;
28304;SDS011;15569;42.652;23.040;2022-10-16T02:34:29;14.68;;;8.65;;
28304;SDS011;15569;42.652;23.040;2022-10-16T02:36:56;16.55;;;9.63;;
28304;SDS011;15569;42.652;23.040;2022-10-16T02:39:25;22.45;;;10.95;;
28304;SDS011;15569;42.652;23.040;2022-10-16T02:41:53;16.90;;;10.52;;
28304;SDS011;15569;42.652;23.040;2022-10-16T02:44:18;24.08;;;10.80;;
28304;SDS011;15569;42.652;23.040;2022-10-16T02:46:44;18.63;;;9.73;;
28304;SDS011;15569;42.652;23.040;2022-10-16T02:49:09;17.90;;;8.63;;
28304;SDS011;15569;42.652;23.040;2022-10-16T02:51:34;16.98;;;8.80;;
28304;SDS011;15569;42.652;23.040;2022-10-16T02:54:00;22.40;;;9.90;;
28304;SDS011;15569;42.652;23.040;2022-10-16T02:56:25;26.20;;;12.30;;
28304;SDS011;15569;42.652;23.040;2022-10-16T02:58:50;34.17;;;11.93;;
28304;SDS011;15569;42.652;23.040;2022-10-16T03:01:16;36.45;;;12.75;;
28304;SDS011;15569;42.652;23.040;2022-10-16T03:03:41;46.72;;;11.75;;
28304;SDS011;15569;42.652;23.040;2022-10-16T03:06:07;29.00;;;12.52;;
28304;SDS011;15569;42.652;23.040;2022-10-16T03:08:33;36.47;;;12.23;;
28304;SDS011;15569;42.652;23.040;2022-10-16T03:10:58;42.10;;;12.75;;
28304;SDS011;15569;42.652;23.040;2022-10-16T03:13:24;38.78;;;12.63;;
28304;SDS011;15569;42.652;23.040;2022-10-16T03:15:49;42.88;;;15.15;;
28304;SDS011;15569;42.652;23.040;2022-10-16T03:18:15;27.38;;;12.98;;
28304;SDS011;15569;42.652;23.040;2022-10-16T03:20:40;27.52;;;11.07;;
28304;SDS011;15569;42.652;23.040;2022-10-16T03:23:07;30.38;;;9.85;;
28304;SDS011;15569;42.652;23.040;2022-10-16T03:25:33;33.75;;;11.07;;
28304;SDS011;15569;42.652;23.040;2022-10-16T03:27:58;30.85;;;12.38;;
28304;SDS011;15569;42.652;23.040;2022-10-16T03:30:23;23.80;;;11.02;;
28304;SDS011;15569;42.652;23.040;2022-10-16T03:32:49;29.48;;;9.52;;
28304;SDS011;15569;42.652;23.040;2022-10-16T03:35:18;18.50;;;8.98;;
28304;SDS011;15569;42.652;23.040;2022-10-16T03:37:48;29.38;;;12.38;;
28304;SDS011;15569;42.652;23.040;2022-10-16T03:40:13;25.52;;;12.32;;
28304;SDS011;15569;42.652;23.040;2022-10-16T03:42:40;28.27;;;13.18;;
28304;SDS011;15569;42.652;23.040;2022-10-16T03:45:05;32.80;;;11.23;;
28304;SDS011;15569;42.652;23.040;2022-10-16T03:47:31;20.42;;;9.02;;
28304;SDS011;15569;42.652;23.040;2022-10-16T03:49:58;19.40;;;9.43;;
28304;SDS011;15569;42.652;23.040;2022-10-16T03:52:23;16.23;;;7.90;;
28304;SDS011;15569;42.652;23.040;2022-10-16T03:54:49;22.98;;;10.38;;
28304;SDS011;15569;42.652;23.040;2022-10-16T03:57:14;35.13;;;12.32;;
28304;SDS011;15569;42.652;23.040;2022-10-16T03:59:40;28.17;;;11.98;;
28304;SDS011;15569;42.652;23.040;2022-10-16T04:02:05;40.78;;;15.20;;
28304;SDS011;15569;42.652;23.040;2022-10-16T04:04:30;29.63;;;12.85;;
28304;SDS011;15569;42.652;23.040;2022-10-16T04:06:56;34.97;;;14.57;;
28304;SDS011;15569;42.652;23.040;2022-10-16T04:09:21;31.05;;;13.90;;
28304;SDS011;15569;42.652;23.040;2022-10-16T04:11:47;32.60;;;13.52;;
28304;SDS011;15569;42.652;23.040;2022-10-16T04:14:12;26.23;;;10.50;;
28304;SDS011;15569;42.652;23.040;2022-10-16T04:16:37;53.47;;;15.20;;
28304;SDS011;15569;42.652;23.040;2022-10-16T04:19:03;42.22;;;14.40;;
28304;SDS011;15569;42.652;23.040;2022-10-16T04:21:28;56.13;;;16.63;;
28304;SDS011;15569;42.652;23.040;2022-10-16T04:23:54;50.05;;;16.65;;
28304;SDS011;15569;42.652;23.040;2022-10-16T04:26:19;68.38;;;22.08;;
28304;SDS011;15569;42.652;23.040;2022-10-16T04:28:44;65.68;;;23.92;;
28304;SDS011;15569;42.652;23.040;2022-10-16T04:31:10;62.10;;;19.40;;
28304;SDS011;15569;42.652;23.040;2022-10-16T04:33:36;49.65;;;20.05;;
28304;SDS011;15569;42.652;23.040;2022-10-16T04:36:02;55.85;;;19.27;;
28304;SDS011;15569;42.652;23.040;2022-10-16T04:38:28;67.80;;;20.50;;
28304;SDS011;15569;42.652;23.040;2022-10-16T04:40:54;50.63;;;15.55;;
28304;SDS011;15569;42.652;23.040;2022-10-16T04:43:20;48.17;;;16.80;;
28304;SDS011;15569;42.652;23.040;2022-10-16T04:45:46;43.05;;;14.30;;
28304;SDS011;15569;42.652;23.040;2022-10-16T04:48:11;43.60;;;13.10;;
28304;SDS011;15569;42.652;23.040;2022-10-16T04:50:37;54.25;;;20.17;;
28304;SDS011;15569;42.652;23.040;2022-10-16T04:53:02;54.88;;;24.35;;
28304;SDS011;15569;42.652;23.040;2022-10-16T04:55:28;39.55;;;16.05;;
28304;SDS011;15569;42.652;23.040;2022-10-16T04:57:54;63.85;;;22.52;;
28304;SDS011;15569;42.652;23.040;2022-10-16T05:00:19;63.17;;;20.08;;
28304;SDS011;15569;42.652;23.040;2022-10-16T05:02:45;140.13;;;45.85;;
28304;SDS011;15569;42.652;23.040;2022-10-16T05:05:10;74.75;;;28.02;;
28304;SDS011;15569;42.652;23.040;2022-10-16T05:07:36;80.80;;;27.52;;
28304;SDS011;15569;42.652;23.040;2022-10-16T05:10:02;61.70;;;23.27;;
28304;SDS011;15569;42.652;23.040;2022-10-16T05:12:27;75.82;;;25.50;;
28304;SDS011;15569;42.652;23.040;2022-10-16T05:14:53;71.95;;;23.23;;
28304;SDS011;15569;42.652;23.040;2022-10-16T05:19:48;126.40;;;40.42;;
28304;SDS011;15569;42.652;23.040;2022-10-16T05:22:13;91.05;;;35.67;;
28304;SDS011;15569;42.652;23.040;2022-10-16T05:24:39;111.85;;;36.50;;
28304;SDS011;15569;42.652;23.040;2022-10-16T05:27:04;91.28;;;35.92;;
28304;SDS011;15569;42.652;23.040;2022-10-16T05:29:30;80.03;;;38.30;;
28304;SDS011;15569;42.652;23.040;2022-10-16T05:31:55;89.32;;;35.00;;
28304;SDS011;15569;42.652;23.040;2022-10-16T05:34:21;119.35;;;45.30;;
28304;SDS011;15569;42.652;23.040;2022-10-16T05:36:46;80.50;;;33.78;;
28304;SDS011;15569;42.652;23.040;2022-10-16T05:39:11;70.45;;;25.42;;
28304;SDS011;15569;42.652;23.040;2022-10-16T05:41:40;81.03;;;27.77;;
28304;SDS011;15569;42.652;23.040;2022-10-16T05:44:05;83.85;;;28.73;;
28304;SDS011;15569;42.652;23.040;2022-10-16T05:46:31;71.35;;;24.65;;
28304;SDS011;15569;42.652;23.040;2022-10-16T05:48:57;79.03;;;25.58;;
28304;SDS011;15569;42.652;23.040;2022-10-16T05:51:23;61.50;;;22.33;;
28304;SDS011;15569;42.652;23.040;2022-10-16T05:53:48;50.88;;;17.42;;
28304;SDS011;15569;42.652;23.040;2022-10-16T05:56:13;52.75;;;15.95;;
28304;SDS011;15569;42.652;23.040;2022-10-16T05:58:39;39.92;;;15.52;;
28304;SDS011;15569;42.652;23.040;2022-10-16T06:01:13;47.28;;;18.23;;
28304;SDS011;15569;42.652;23.040;2022-10-16T06:03:41;61.08;;;20.92;;
28304;SDS011;15569;42.652;23.040;2022-10-16T06:06:07;60.55;;;20.15;;
28304;SDS011;15569;42.652;23.040;2022-10-16T06:08:37;68.85;;;26.45;;
28304;SDS011;15569;42.652;23.040;2022-10-16T06:11:04;73.75;;;24.30;;
28304;SDS011;15569;42.652;23.040;2022-10-16T06:13:30;71.97;;;25.25;;
28304;SDS011;15569;42.652;23.040;2022-10-16T06:15:57;75.68;;;28.58;;
28304;SDS011;15569;42.652;23.040;2022-10-16T06:18:23;69.72;;;24.42;;
28304;SDS011;15569;42.652;23.040;2022-10-16T06:20:49;53.00;;;21.00;;
28304;SDS011;15569;42.652;23.040;2022-10-16T06:23:14;56.25;;;20.95;;
28304;SDS011;15569;42.652;23.040;2022-10-16T06:25:40;61.05;;;20.23;;
28304;SDS011;15569;42.652;23.040;2022-10-16T06:28:05;55.78;;;17.17;;
28304;SDS011;15569;42.652;23.040;2022-10-16T06:30:31;39.60;;;12.02;;
28304;SDS011;15569;42.652;23.040;2022-10-16T06:32:56;33.28;;;12.50;;
28304;SDS011;15569;42.652;23.040;2022-10-16T06:35:21;38.63;;;13.43;;
28304;SDS011;15569;42.652;23.040;2022-10-16T06:37:47;34.47;;;11.90;;
28304;SDS011;15569;42.652;23.040;2022-10-16T06:40:12;44.53;;;14.90;;
28304;SDS011;15569;42.652;23.040;2022-10-16T06:42:39;28.95;;;13.35;;
28304;SDS011;15569;42.652;23.040;2022-10-16T06:45:05;39.22;;;16.08;;
28304;SDS011;15569;42.652;23.040;2022-10-16T06:47:31;36.58;;;15.35;;
28304;SDS011;15569;42.652;23.040;2022-10-16T06:49:56;35.58;;;13.50;;
28304;SDS011;15569;42.652;23.040;2022-10-16T06:52:22;30.38;;;12.60;;
28304;SDS011;15569;42.652;23.040;2022-10-16T06:54:51;31.77;;;12.25;;
28304;SDS011;15569;42.652;23.040;2022-10-16T06:57:16;34.10;;;14.68;;
28304;SDS011;15569;42.652;23.040;2022-10-16T06:59:41;37.78;;;14.00;;
28304;SDS011;15569;42.652;23.040;2022-10-16T07:02:07;42.38;;;14.68;;
28304;SDS011;15569;42.652;23.040;2022-10-16T07:04:33;44.95;;;14.43;;
28304;SDS011;15569;42.652;23.040;2022-10-16T07:07:00;42.63;;;15.90;;
28304;SDS011;15569;42.652;23.040;2022-10-16T07:09:25;48.85;;;16.83;;
28304;SDS011;15569;42.652;23.040;2022-10-16T07:11:51;37.88;;;12.02;;
28304;SDS011;15569;42.652;23.040;2022-10-16T07:14:17;39.42;;;13.07;;
28304;SDS011;15569;42.652;23.040;2022-10-16T07:16:44;44.92;;;12.95;;
28304;SDS011;15569;42.652;23.040;2022-10-16T07:19:09;46.50;;;13.60;;
28304;SDS011;15569;42.652;23.040;2022-10-16T07:21:37;34.00;;;13.45;;
28304;SDS011;15569;42.652;23.040;2022-10-16T07:24:03;36.33;;;13.90;;
28304;SDS011;15569;42.652;23.040;2022-10-16T07:26:32;31.25;;;11.63;;
28304;SDS011;15569;42.652;23.040;2022-10-16T07:29:00;38.25;;;12.30;;
28304;SDS011;15569;42.652;23.040;2022-10-16T07:31:26;28.50;;;11.70;;
28304;SDS011;15569;42.652;23.040;2022-10-16T07:33:52;42.88;;;13.63;;
28304;SDS011;15569;42.652;23.040;2022-10-16T07:36:19;35.78;;;11.60;;
28304;SDS011;15569;42.652;23.040;2022-10-16T07:38:45;38.40;;;12.10;;
28304;SDS011;15569;42.652;23.040;2022-10-16T07:41:15;36.28;;;11.32;;
28304;SDS011;15569;42.652;23.040;2022-10-16T07:43:45;35.05;;;11.20;;
28304;SDS011;15569;42.652;23.040;2022-10-16T07:46:15;37.95;;;10.38;;
28304;SDS011;15569;42.652;23.040;2022-10-16T07:48:42;27.35;;;10.38;;
28304;SDS011;15569;42.652;23.040;2022-10-16T07:51:11;25.98;;;9.65;;
28304;SDS011;15569;42.652;23.040;2022-10-16T07:53:37;19.83;;;9.20;;
28304;SDS011;15569;42.652;23.040;2022-10-16T07:56:06;25.63;;;9.68;;
28304;SDS011;15569;42.652;23.040;2022-10-16T07:58:32;19.88;;;8.65;;
28304;SDS011;15569;42.652;23.040;2022-10-16T08:00:59;27.00;;;8.55;;
28304;SDS011;15569;42.652;23.040;2022-10-16T08:03:35;21.42;;;9.52;;
28304;SDS011;15569;42.652;23.040;2022-10-16T08:06:01;23.27;;;8.82;;
28304;SDS011;15569;42.652;23.040;2022-10-16T08:08:27;13.98;;;7.63;;
28304;SDS011;15569;42.652;23.040;2022-10-16T08:10:53;20.90;;;7.55;;
28304;SDS011;15569;42.652;23.040;2022-10-16T08:13:18;16.88;;;7.13;;
28304;SDS011;15569;42.652;23.040;2022-10-16T08:15:44;13.98;;;6.60;;
28304;SDS011;15569;42.652;23.040;2022-10-16T08:18:11;13.25;;;6.63;;
28304;SDS011;15569;42.652;23.040;2022-10-16T08:20:38;19.40;;;7.30;;
28304;SDS011;15569;42.652;23.040;2022-10-16T08:23:04;14.85;;;7.07;;
28304;SDS011;15569;42.652;23.040;2022-10-16T08:25:30;20.58;;;7.05;;
28304;SDS011;15569;42.652;23.040;2022-10-16T08:27:55;14.45;;;6.30;;
28304;SDS011;15569;42.652;23.040;2022-10-16T08:30:21;13.23;;;4.95;;
28304;SDS011;15569;42.652;23.040;2022-10-16T08:32:48;13.68;;;5.95;;
28304;SDS011;15569;42.652;23.040;2022-10-16T08:35:16;16.20;;;8.95;;
28304;SDS011;15569;42.652;23.040;2022-10-16T08:37:41;11.27;;;6.05;;
28304;SDS011;15569;42.652;23.040;2022-10-16T08:40:12;30.90;;;5.53;;
28304;SDS011;15569;42.652;23.040;2022-10-16T08:43:04;10.57;;;6.72;;
28304;SDS011;15569;42.652;23.040;2022-10-16T08:48:41;10.70;;;5.63;;
28304;SDS011;15569;42.652;23.040;2022-10-16T08:51:11;12.50;;;5.97;;
28304;SDS011;15569;42.652;23.040;2022-10-16T08:56:17;14.35;;;5.20;;
28304;SDS011;15569;42.652;23.040;2022-10-16T08:58:43;8.20;;;4.32;;
28304;SDS011;15569;42.652;23.040;2022-10-16T09:01:11;14.88;;;5.20;;
28304;SDS011;15569;42.652;23.040;2022-10-16T09:03:45;23.50;;;6.43;;
28304;SDS011;15569;42.652;23.040;2022-10-16T09:12:00;14.23;;;8.10;;
28304;SDS011;15569;42.652;23.040;2022-10-16T09:17:39;10.25;;;6.75;;
28304;SDS011;15569;42.652;23.040;2022-10-16T09:20:13;11.60;;;6.82;;
28304;SDS011;15569;42.652;23.040;2022-10-16T09:22:44;14.57;;;5.25;;
28304;SDS011;15569;42.652;23.040;2022-10-16T09:25:11;11.13;;;5.85;;
28304;SDS011;15569;42.652;23.040;2022-10-16T09:27:38;11.02;;;5.85;;
28304;SDS011;15569;42.652;23.040;2022-10-16T09:30:14;11.70;;;5.03;;
28304;SDS011;15569;42.652;23.040;2022-10-16T09:32:43;10.30;;;5.60;;
28304;SDS011;15569;42.652;23.040;2022-10-16T09:35:17;7.30;;;4.75;;
28304;SDS011;15569;42.652;23.040;2022-10-16T09:37:47;7.38;;;4.75;;
28304;SDS011;15569;42.652;23.040;2022-10-16T09:43:19;9.05;;;4.60;;
28304;SDS011;15569;42.652;23.040;2022-10-16T09:48:25;7.40;;;3.70;;
28304;SDS011;15569;42.652;23.040;2022-10-16T09:50:56;7.38;;;3.83;;
28304;SDS011;15569;42.652;23.040;2022-10-16T09:53:40;6.18;;;3.80;;
28304;SDS011;15569;42.652;23.040;2022-10-16T09:56:10;7.78;;;4.07;;
28304;SDS011;15569;42.652;23.040;2022-10-16T09:58:41;8.17;;;3.77;;
28304;SDS011;15569;42.652;23.040;2022-10-16T10:01:12;4.35;;;3.13;;
28304;SDS011;15569;42.652;23.040;2022-10-16T10:03:40;7.57;;;4.32;;
28304;SDS011;15569;42.652;23.040;2022-10-16T10:08:52;4.85;;;2.88;;
28304;SDS011;15569;42.652;23.040;2022-10-16T10:11:35;7.03;;;3.70;;
28304;SDS011;15569;42.652;23.040;2022-10-16T10:14:21;6.32;;;3.30;;
28304;SDS011;15569;42.652;23.040;2022-10-16T10:16:47;8.18;;;4.70;;
28304;SDS011;15569;42.652;23.040;2022-10-16T10:19:17;4.82;;;3.58;;
28304;SDS011;15569;42.652;23.040;2022-10-16T10:21:45;5.70;;;3.40;;
28304;SDS011;15569;42.652;23.040;2022-10-16T10:24:15;6.15;;;3.42;;
28304;SDS011;15569;42.652;23.040;2022-10-16T10:26:45;9.32;;;3.60;;
28304;SDS011;15569;42.652;23.040;2022-10-16T10:29:29;8.18;;;3.20;;
28304;SDS011;15569;42.652;23.040;2022-10-16T10:34:46;5.57;;;2.47;;
28304;SDS011;15569;42.652;23.040;2022-10-16T10:37:32;7.07;;;3.75;;
28304;SDS011;15569;42.652;23.040;2022-10-16T10:42:51;4.72;;;2.65;;
28304;SDS011;15569;42.652;23.040;2022-10-16T10:48:15;4.72;;;2.55;;
28304;SDS011;15569;42.652;23.040;2022-10-16T10:50:48;4.07;;;2.53;;
28304;SDS011;15569;42.652;23.040;2022-10-16T10:56:22;4.75;;;2.70;;
28304;SDS011;15569;42.652;23.040;2022-10-16T11:02:00;4.55;;;2.83;;
28304;SDS011;15569;42.652;23.040;2022-10-16T11:07:54;3.78;;;2.42;;
28304;SDS011;15569;42.652;23.040;2022-10-16T11:12:47;3.40;;;2.70;;
28304;SDS011;15569;42.652;23.040;2022-10-16T11:15:21;7.28;;;3.15;;
28304;SDS011;15569;42.652;23.040;2022-10-16T11:20:49;8.90;;;3.70;;
28304;SDS011;15569;42.652;23.040;2022-10-16T11:23:19;7.80;;;3.05;;
28304;SDS011;15569;42.652;23.040;2022-10-16T11:26:01;3.28;;;2.60;;
28304;SDS011;15569;42.652;23.040;2022-10-16T11:28:38;4.03;;;2.45;;
28304;SDS011;15569;42.652;23.040;2022-10-16T11:36:22;6.13;;;2.58;;
28304;SDS011;15569;42.652;23.040;2022-10-16T11:41:54;5.68;;;2.83;;
28304;SDS011;15569;42.652;23.040;2022-10-16T11:47:40;6.22;;;2.67;;
28304;SDS011;15569;42.652;23.040;2022-10-16T11:55:27;3.17;;;2.38;;
28304;SDS011;15569;42.652;23.040;2022-10-16T11:58:01;3.97;;;2.83;;
28304;SDS011;15569;42.652;23.040;2022-10-16T12:06:11;5.68;;;2.47;;
28304;SDS011;15569;42.652;23.040;2022-10-16T12:08:39;3.63;;;2.42;;
28304;SDS011;15569;42.652;23.040;2022-10-16T12:11:06;4.40;;;2.55;;
28304;SDS011;15569;42.652;23.040;2022-10-16T12:13:47;5.43;;;2.60;;
28304;SDS011;15569;42.652;23.040;2022-10-16T12:18:39;5.93;;;2.58;;
28304;SDS011;15569;42.652;23.040;2022-10-16T12:21:06;3.17;;;2.17;;
28304;SDS011;15569;42.652;23.040;2022-10-16T12:23:49;3.78;;;2.20;;
28304;SDS011;15569;42.652;23.040;2022-10-16T12:26:26;4.15;;;2.80;;
28304;SDS011;15569;42.652;23.040;2022-10-16T12:28:54;2.97;;;2.40;;
28304;SDS011;15569;42.652;23.040;2022-10-16T12:31:21;4.55;;;2.67;;
28304;SDS011;15569;42.652;23.040;2022-10-16T12:34:21;3.38;;;2.67;;
28304;SDS011;15569;42.652;23.040;2022-10-16T12:36:45;2.63;;;2.28;;
28304;SDS011;15569;42.652;23.040;2022-10-16T12:39:16;2.90;;;2.40;;
28304;SDS011;15569;42.652;23.040;2022-10-16T12:41:47;5.93;;;2.67;;
28304;SDS011;15569;42.652;23.040;2022-10-16T12:44:23;5.22;;;3.17;;
28304;SDS011;15569;42.652;23.040;2022-10-16T12:46:49;7.40;;;4.15;;
28304;SDS011;15569;42.652;23.040;2022-10-16T13:18:59;3.90;;;2.40;;
28304;SDS011;15569;42.652;23.040;2022-10-16T13:21:42;2.85;;;2.47;;
28304;SDS011;15569;42.652;23.040;2022-10-16T13:24:12;3.20;;;2.40;;
28304;SDS011;15569;42.652;23.040;2022-10-16T13:27:02;3.47;;;2.88;;
28304;SDS011;15569;42.652;23.040;2022-10-16T13:29:31;3.47;;;2.55;;
28304;SDS011;15569;42.652;23.040;2022-10-16T13:31:58;4.05;;;2.88;;
28304;SDS011;15569;42.652;23.040;2022-10-16T13:34:25;3.72;;;2.70;;
28304;SDS011;15569;42.652;23.040;2022-10-16T13:36:52;6.82;;;3.13;;
28304;SDS011;15569;42.652;23.040;2022-10-16T13:39:30;3.83;;;3.00;;
28304;SDS011;15569;42.652;23.040;2022-10-16T13:42:03;9.00;;;3.90;;
28304;SDS011;15569;42.652;23.040;2022-10-16T13:44:40;4.97;;;2.25;;
28304;SDS011;15569;42.652;23.040;2022-10-16T13:47:15;6.40;;;2.63;;
28304;SDS011;15569;42.652;23.040;2022-10-16T13:49:45;4.28;;;2.53;;
28304;SDS011;15569;42.652;23.040;2022-10-16T13:52:15;3.08;;;2.00;;
28304;SDS011;15569;42.652;23.040;2022-10-16T13:54:43;3.38;;;2.55;;
28304;SDS011;15569;42.652;23.040;2022-10-16T13:57:11;3.72;;;2.70;;
28304;SDS011;15569;42.652;23.040;2022-10-16T13:59:39;6.68;;;2.88;;
28304;SDS011;15569;42.652;23.040;2022-10-16T14:02:26;3.38;;;2.53;;
28304;SDS011;15569;42.652;23.040;2022-10-16T14:05:02;2.72;;;2.50;;
28304;SDS011;15569;42.652;23.040;2022-10-16T14:07:30;4.50;;;2.38;;
28304;SDS011;15569;42.652;23.040;2022-10-16T14:09:59;4.63;;;2.50;;
28304;SDS011;15569;42.652;23.040;2022-10-16T14:12:26;3.47;;;2.53;;
28304;SDS011;15569;42.652;23.040;2022-10-16T14:14:52;2.60;;;2.17;;
28304;SDS011;15569;42.652;23.040;2022-10-16T14:17:23;2.58;;;2.38;;
28304;SDS011;15569;42.652;23.040;2022-10-16T14:19:49;4.95;;;2.38;;
28304;SDS011;15569;42.652;23.040;2022-10-16T14:22:23;7.07;;;2.50;;
28304;SDS011;15569;42.652;23.040;2022-10-16T14:24:49;3.10;;;2.28;;
28304;SDS011;15569;42.652;23.040;2022-10-16T14:27:23;5.28;;;3.53;;
28304;SDS011;15569;42.652;23.040;2022-10-16T14:32:39;9.93;;;2.38;;
28304;SDS011;15569;42.652;23.040;2022-10-16T14:35:21;5.60;;;2.72;;
28304;SDS011;15569;42.652;23.040;2022-10-16T14:37:51;4.93;;;2.95;;
28304;SDS011;15569;42.652;23.040;2022-10-16T14:40:18;7.00;;;2.53;;
28304;SDS011;15569;42.652;23.040;2022-10-16T14:42:43;4.88;;;3.10;;
28304;SDS011;15569;42.652;23.040;2022-10-16T14:45:10;6.30;;;4.22;;
28304;SDS011;15569;42.652;23.040;2022-10-16T14:47:37;8.73;;;3.42;;
28304;SDS011;15569;42.652;23.040;2022-10-16T14:50:12;4.93;;;2.92;;
28304;SDS011;15569;42.652;23.040;2022-10-16T14:52:38;5.30;;;2.72;;
28304;SDS011;15569;42.652;23.040;2022-10-16T14:55:03;5.18;;;2.83;;
28304;SDS011;15569;42.652;23.040;2022-10-16T14:57:30;4.40;;;2.00;;
28304;SDS011;15569;42.652;23.040;2022-10-16T15:00:00;3.75;;;2.50;;
28304;SDS011;15569;42.652;23.040;2022-10-16T15:02:30;13.40;;;3.10;;
28304;SDS011;15569;42.652;23.040;2022-10-16T15:04:57;4.53;;;3.17;;
28304;SDS011;15569;42.652;23.040;2022-10-16T15:07:27;7.53;;;4.50;;
28304;SDS011;15569;42.652;23.040;2022-10-16T15:09:52;4.10;;;3.30;;
28304;SDS011;15569;42.652;23.040;2022-10-16T15:12:18;3.15;;;2.40;;
28304;SDS011;15569;42.652;23.040;2022-10-16T15:14:44;4.70;;;3.45;;
28304;SDS011;15569;42.652;23.040;2022-10-16T15:17:09;7.55;;;4.28;;
28304;SDS011;15569;42.652;23.040;2022-10-16T15:19:36;9.70;;;4.72;;
28304;SDS011;15569;42.652;23.040;2022-10-16T15:22:01;8.13;;;5.50;;
28304;SDS011;15569;42.652;23.040;2022-10-16T15:24:26;4.43;;;3.63;;
28304;SDS011;15569;42.652;23.040;2022-10-16T15:26:52;11.43;;;5.35;;
28304;SDS011;15569;42.652;23.040;2022-10-16T15:29:17;7.47;;;5.18;;
28304;SDS011;15569;42.652;23.040;2022-10-16T15:31:43;7.35;;;3.88;;
28304;SDS011;15569;42.652;23.040;2022-10-16T15:34:09;8.43;;;5.25;;
28304;SDS011;15569;42.652;23.040;2022-10-16T15:36:35;9.23;;;3.90;;
28304;SDS011;15569;42.652;23.040;2022-10-16T15:39:08;134.00;;;78.55;;
28304;SDS011;15569;42.652;23.040;2022-10-16T15:41:38;85.22;;;54.08;;
28304;SDS011;15569;42.652;23.040;2022-10-16T15:44:03;50.03;;;25.55;;
28304;SDS011;15569;42.652;23.040;2022-10-16T15:46:29;57.53;;;45.80;;
28304;SDS011;15569;42.652;23.040;2022-10-16T15:48:56;189.32;;;105.40;;
28304;SDS011;15569;42.652;23.040;2022-10-16T15:51:23;224.52;;;117.82;;
28304;SDS011;15569;42.652;23.040;2022-10-16T15:53:49;133.50;;;77.50;;
28304;SDS011;15569;42.652;23.040;2022-10-16T15:56:16;40.63;;;36.33;;
28304;SDS011;15569;42.652;23.040;2022-10-16T15:58:42;60.17;;;40.60;;
28304;SDS011;15569;42.652;23.040;2022-10-16T16:01:08;129.07;;;72.43;;
28304;SDS011;15569;42.652;23.040;2022-10-16T16:03:35;29.33;;;25.80;;
28304;SDS011;15569;42.652;23.040;2022-10-16T16:06:05;35.00;;;28.48;;
28304;SDS011;15569;42.652;23.040;2022-10-16T16:08:35;84.25;;;53.17;;
28304;SDS011;15569;42.652;23.040;2022-10-16T16:11:07;38.25;;;27.50;;
28304;SDS011;15569;42.652;23.040;2022-10-16T16:13:34;31.20;;;24.65;;
28304;SDS011;15569;42.652;23.040;2022-10-16T16:16:04;55.42;;;49.42;;
28304;SDS011;15569;42.652;23.040;2022-10-16T16:18:31;95.93;;;50.35;;
28304;SDS011;15569;42.652;23.040;2022-10-16T16:20:57;152.88;;;62.70;;
28304;SDS011;15569;42.652;23.040;2022-10-16T16:23:22;106.32;;;42.40;;
28304;SDS011;15569;42.652;23.040;2022-10-16T16:28:34;160.48;;;67.75;;
28304;SDS011;15569;42.652;23.040;2022-10-16T16:31:00;108.15;;;64.50;;
28304;SDS011;15569;42.652;23.040;2022-10-16T16:33:26;72.88;;;55.80;;
28304;SDS011;15569;42.652;23.040;2022-10-16T16:35:55;32.88;;;21.42;;
28304;SDS011;15569;42.652;23.040;2022-10-16T16:38:22;72.85;;;43.13;;